Buenos Aires, Argentina
Current Conditions -  °F | °C
As of 8:00 PM on Thursday 27 Nov 2014 (Local Time) from SABE Reporting Station
Clear Clear  
Wind Chill: 23°   Ceiling: Unl
Heat Index: 23°   Visibility: 6mi
Dew Point: 15°   Wind: 7mph
Humidity: 61%   Direction: 110°ESE
Pressure: 29.94"   Gusts: NA
Location:  34.61°S, 58.37°W
Report Text: SABE 272300Z 11006KT CAVOK 23/15 Q1014
Loading
Personal Weather Stations






























Interactive Weather Map New forecast layout! Learn more

10-Day Weather Forecast

Advertisements
Track Severe Weather on mobile